createdAt,value
2023-04-20T00:00:00.027Z,35.00
2023-04-20T00:02:28.503Z,35.10
2023-04-20T00:04:56.944Z,35.30
2023-04-20T00:07:27.334Z,35.30
2023-04-20T00:09:55.732Z,35.20
2023-04-20T00:12:24.078Z,35.00
2023-04-20T00:14:53.436Z,35.00
2023-04-20T00:17:23.097Z,34.90
2023-04-20T00:19:51.362Z,34.90
2023-04-20T00:22:20.838Z,35.10
2023-04-20T00:24:49.279Z,35.20
2023-04-20T00:27:17.534Z,35.20
2023-04-20T00:29:45.837Z,35.00
2023-04-20T00:32:14.141Z,35.10
2023-04-20T00:34:43.835Z,35.20
2023-04-20T00:37:12.408Z,35.10
2023-04-20T00:39:41.183Z,35.10
2023-04-20T00:42:10.100Z,35.00
2023-04-20T00:44:38.378Z,35.00
2023-04-20T00:47:06.842Z,35.00
2023-04-20T00:49:35.324Z,35.10
2023-04-20T00:52:05.203Z,35.20
2023-04-20T00:54:33.624Z,35.10
2023-04-20T00:57:02.450Z,35.10
2023-04-20T00:59:30.652Z,35.20
2023-04-20T01:01:59.450Z,35.20
2023-04-20T01:04:28.263Z,35.20
2023-04-20T01:06:57.166Z,35.20
2023-04-20T01:09:26.763Z,35.20
2023-04-20T01:11:56.198Z,35.20
2023-04-20T01:14:25.034Z,35.20
2023-04-20T01:16:56.458Z,35.20
2023-04-20T01:19:25.316Z,35.30
2023-04-20T01:21:53.696Z,35.40
2023-04-20T01:24:23.285Z,35.40
2023-04-20T01:26:51.489Z,35.50
2023-04-20T01:29:19.729Z,35.50
2023-04-20T01:31:47.990Z,35.70
2023-04-20T01:34:17.770Z,35.90
2023-04-20T01:36:46.849Z,35.90
2023-04-20T01:39:15.409Z,36.10
2023-04-20T01:41:45.663Z,36.20
2023-04-20T01:44:13.948Z,36.30
2023-04-20T01:46:42.236Z,36.30
2023-04-20T01:49:10.922Z,36.50
2023-04-20T01:51:39.131Z,36.70
2023-04-20T01:54:07.691Z,36.80
2023-04-20T01:56:36.000Z,36.90
2023-04-20T01:59:05.703Z,37.10
2023-04-20T02:01:33.980Z,37.20
2023-04-20T02:04:02.311Z,37.20
2023-04-20T02:06:31.243Z,37.20
2023-04-20T02:08:59.524Z,37.40
2023-04-20T02:11:27.819Z,37.60
2023-04-20T02:13:56.067Z,37.60
2023-04-20T02:16:25.809Z,37.80
2023-04-20T02:18:54.735Z,38.00
2023-04-20T02:21:23.274Z,38.10
2023-04-20T02:23:51.566Z,38.20
2023-04-20T02:26:19.822Z,38.50
2023-04-20T02:28:48.346Z,38.70
2023-04-20T02:31:16.874Z,38.60
2023-04-20T02:33:47.650Z,38.50
2023-04-20T02:36:16.117Z,38.60
2023-04-20T02:38:44.469Z,38.70
2023-04-20T02:41:12.667Z,38.90
2023-04-20T02:43:40.826Z,39.10
2023-04-20T02:46:09.132Z,39.00
2023-04-20T02:48:37.397Z,39.00
2023-04-20T02:51:07.306Z,39.10
2023-04-20T02:53:35.781Z,39.10
2023-04-20T02:56:04.150Z,39.20
2023-04-20T02:58:33.220Z,39.40
2023-04-20T03:01:03.798Z,39.40
2023-04-20T03:03:32.525Z,39.40
2023-04-20T03:06:00.902Z,39.40
2023-04-20T03:08:30.541Z,39.40
2023-04-20T03:10:58.909Z,39.50
2023-04-20T03:13:27.145Z,39.50
2023-04-20T03:15:55.437Z,39.50
2023-04-20T03:18:23.717Z,39.30
2023-04-20T03:20:52.780Z,39.10
2023-04-20T03:23:20.983Z,38.90
2023-04-20T03:25:50.520Z,38.70
2023-04-20T03:28:18.706Z,38.70
2023-04-20T03:30:46.969Z,38.70
2023-04-20T03:33:15.336Z,38.70
2023-04-20T03:35:43.835Z,38.70
2023-04-20T03:38:12.064Z,38.70
2023-04-20T03:40:40.292Z,38.90
2023-04-20T03:43:11.128Z,38.80
2023-04-20T03:45:39.393Z,38.80
2023-04-20T03:48:07.603Z,38.70
2023-04-20T03:50:36.052Z,38.70
2023-04-20T03:53:04.266Z,38.90
2023-04-20T03:55:32.538Z,38.70
2023-04-20T03:58:01.117Z,38.50
2023-04-20T04:00:30.754Z,38.30
2023-04-20T04:02:59.501Z,38.30
2023-04-20T04:05:28.441Z,38.20
2023-04-20T04:07:56.926Z,38.20
2023-04-20T04:10:25.379Z,38.40
2023-04-20T04:12:53.745Z,38.30
2023-04-20T04:15:22.076Z,38.50
2023-04-20T04:17:51.702Z,38.40
2023-04-20T04:20:20.063Z,38.40
2023-04-20T04:22:48.286Z,38.40
2023-04-20T04:25:17.384Z,38.40
2023-04-20T04:27:46.349Z,38.40
2023-04-20T04:30:15.108Z,38.30
2023-04-20T04:32:44.325Z,38.30
2023-04-20T04:35:15.661Z,38.40
2023-04-20T04:37:44.054Z,38.40
2023-04-20T04:40:12.886Z,38.40
2023-04-20T04:42:41.219Z,38.40
2023-04-20T04:45:11.069Z,38.50
2023-04-20T04:47:41.146Z,38.70
2023-04-20T04:50:10.509Z,38.80
2023-04-20T04:52:40.311Z,39.00
2023-04-20T04:55:09.811Z,39.40
2023-04-20T04:57:39.400Z,39.80
2023-04-20T05:00:12.046Z,40.20
2023-04-20T05:02:41.032Z,40.70
2023-04-20T05:05:10.290Z,41.20
2023-04-20T05:07:40.032Z,41.90
2023-04-20T05:10:09.559Z,42.70
2023-04-20T05:12:37.918Z,43.50
2023-04-20T05:15:06.871Z,43.80
2023-04-20T05:17:35.245Z,44.00
2023-04-20T05:20:04.118Z,44.20
2023-04-20T05:22:32.924Z,45.50
2023-04-20T05:25:02.594Z,46.30
2023-04-20T05:27:31.405Z,46.90
2023-04-20T05:30:09.474Z,47.20
2023-04-20T05:32:51.079Z,47.30
2023-04-20T05:35:21.135Z,47.30
2023-04-20T05:37:49.929Z,47.90
2023-04-20T05:40:20.252Z,48.30
2023-04-20T05:42:48.578Z,48.70
2023-04-20T05:45:16.974Z,48.50
2023-04-20T05:47:54.040Z,48.50
2023-04-20T05:50:22.802Z,48.40
2023-04-20T05:52:51.082Z,48.40
2023-04-20T05:55:22.747Z,48.50
2023-04-20T05:57:55.132Z,48.70
2023-04-20T06:00:25.889Z,48.80
2023-04-20T06:02:55.795Z,48.70
2023-04-20T06:05:24.439Z,49.00
2023-04-20T06:07:53.022Z,49.30
2023-04-20T06:10:22.844Z,49.40
2023-04-20T06:12:51.349Z,49.80
2023-04-20T06:15:19.844Z,49.80
2023-04-20T06:17:48.058Z,50.00
2023-04-20T06:20:16.762Z,50.10
2023-04-20T06:22:45.730Z,50.60
2023-04-20T06:25:15.349Z,50.90
2023-04-20T06:27:45.102Z,50.70
2023-04-20T06:30:14.604Z,51.10
2023-04-20T06:32:46.110Z,51.40
2023-04-20T06:35:14.777Z,51.60
2023-04-20T06:37:43.171Z,51.80
2023-04-20T06:40:13.189Z,52.20
2023-04-20T06:42:44.302Z,52.60
2023-04-20T06:45:13.117Z,53.00
2023-04-20T06:47:41.822Z,53.50
2023-04-20T06:50:10.939Z,53.80
2023-04-20T06:52:41.782Z,54.20
2023-04-20T06:55:11.032Z,54.50
2023-04-20T06:57:40.888Z,54.60
2023-04-20T07:00:12.698Z,54.90
2023-04-20T07:02:45.364Z,55.20
2023-04-20T07:05:14.213Z,55.80
2023-04-20T07:07:43.219Z,56.00
2023-04-20T07:10:13.261Z,56.30
2023-04-20T07:12:43.517Z,56.50
2023-04-20T07:15:14.445Z,56.90
2023-04-20T07:17:45.377Z,57.10
2023-04-20T07:20:15.108Z,57.50
2023-04-20T07:22:43.516Z,57.80
2023-04-20T07:25:12.049Z,57.90
2023-04-20T07:27:42.054Z,58.30
2023-04-20T07:30:11.972Z,58.30
2023-04-20T07:32:42.208Z,58.50
2023-04-20T07:35:11.454Z,58.70
2023-04-20T07:37:40.748Z,59.00
2023-04-20T07:40:10.812Z,59.40
2023-04-20T07:42:39.634Z,59.20
2023-04-20T07:45:09.136Z,59.50
2023-04-20T07:47:38.980Z,59.70
2023-04-20T07:50:09.755Z,59.80
2023-04-20T07:52:39.852Z,59.90
2023-04-20T07:55:11.560Z,59.90
2023-04-20T07:57:40.212Z,60.00
2023-04-20T08:00:10.171Z,60.00
2023-04-20T08:02:38.779Z,60.20
2023-04-20T08:05:10.107Z,60.40
2023-04-20T08:07:39.776Z,60.30
2023-04-20T08:10:10.497Z,60.60
2023-04-20T08:12:42.236Z,60.50
2023-04-20T08:15:11.878Z,60.30
2023-04-20T08:17:40.413Z,60.00
2023-04-20T08:20:11.499Z,60.30
2023-04-20T08:22:39.954Z,60.10
2023-04-20T08:25:09.019Z,59.10
2023-04-20T08:27:37.244Z,59.10
2023-04-20T08:30:06.746Z,59.30
2023-04-20T08:32:35.070Z,59.50
2023-04-20T08:35:04.068Z,59.60
2023-04-20T08:37:33.730Z,59.60
2023-04-20T08:40:02.245Z,59.30
2023-04-20T08:42:33.539Z,59.20
2023-04-20T08:45:02.071Z,59.20
2023-04-20T08:47:32.087Z,59.10
2023-04-20T08:50:01.685Z,59.00
2023-04-20T08:52:30.084Z,59.00
2023-04-20T08:55:00.673Z,59.10
2023-04-20T08:57:29.286Z,59.20
2023-04-20T08:59:58.580Z,59.60
2023-04-20T09:02:27.277Z,59.80
2023-04-20T09:05:05.938Z,59.80
2023-04-20T09:07:34.329Z,59.90
2023-04-20T09:10:06.781Z,59.70
2023-04-20T09:12:42.697Z,59.50
2023-04-20T09:15:11.937Z,59.30
2023-04-20T09:17:41.538Z,59.10
2023-04-20T09:20:11.274Z,58.80
2023-04-20T09:22:39.976Z,58.70
2023-04-20T09:25:16.782Z,58.20
2023-04-20T09:27:45.012Z,58.70
2023-04-20T09:30:13.925Z,58.50
2023-04-20T09:32:42.195Z,58.40
2023-04-20T09:35:10.919Z,58.40
2023-04-20T09:37:48.550Z,58.20
2023-04-20T09:40:21.945Z,58.40
2023-04-20T09:42:52.029Z,58.50
2023-04-20T09:45:20.323Z,58.50
2023-04-20T09:47:49.874Z,58.70
2023-04-20T09:50:26.882Z,58.90
2023-04-20T09:52:58.527Z,58.90
2023-04-20T09:55:31.621Z,59.00
2023-04-20T09:58:02.916Z,59.00
2023-04-20T10:00:31.259Z,59.30
2023-04-20T10:02:59.849Z,59.10
2023-04-20T10:05:36.602Z,59.00
2023-04-20T10:08:05.350Z,58.80
2023-04-20T10:10:46.572Z,58.90
2023-04-20T10:13:15.676Z,59.50
2023-04-20T10:15:44.114Z,59.50
2023-04-20T10:18:20.036Z,59.50
2023-04-20T10:20:48.768Z,59.60
2023-04-20T10:23:18.775Z,59.60
2023-04-20T10:25:58.961Z,59.80
2023-04-20T10:28:39.892Z,60.20
2023-04-20T10:31:13.061Z,59.90
2023-04-20T10:33:54.310Z,60.30
2023-04-20T10:36:28.290Z,60.50
2023-04-20T10:38:57.342Z,60.20
2023-04-20T10:41:27.161Z,60.30
2023-04-20T10:43:55.319Z,60.70
2023-04-20T10:46:24.721Z,61.00
2023-04-20T10:48:57.184Z,61.10
2023-04-20T10:51:26.242Z,60.90
2023-04-20T10:54:01.648Z,60.60
2023-04-20T10:56:38.255Z,60.30
2023-04-20T10:59:11.324Z,60.10
2023-04-20T11:01:40.892Z,59.70
2023-04-20T11:04:10.694Z,59.60
2023-04-20T11:06:43.057Z,59.50
2023-04-20T11:09:19.942Z,59.70
2023-04-20T11:12:00.142Z,59.80
2023-04-20T11:14:29.064Z,60.10
2023-04-20T11:16:57.609Z,60.20
2023-04-20T11:19:29.284Z,60.30
2023-04-20T11:21:58.179Z,59.50
2023-04-20T11:24:29.855Z,59.00
2023-04-20T11:27:00.140Z,58.80
2023-04-20T11:29:30.793Z,58.40
2023-04-20T11:32:00.389Z,57.80
2023-04-20T11:34:31.061Z,57.50
2023-04-20T11:37:05.509Z,57.20
2023-04-20T11:39:34.233Z,57.30
2023-04-20T11:42:04.302Z,57.10
2023-04-20T11:44:33.186Z,56.70
2023-04-20T11:47:01.797Z,56.20
2023-04-20T11:49:30.893Z,55.80
2023-04-20T11:51:59.226Z,55.20
2023-04-20T11:54:29.639Z,55.00
2023-04-20T11:56:58.903Z,55.70
2023-04-20T11:59:28.415Z,55.10
2023-04-20T12:01:56.715Z,55.10
2023-04-20T12:04:25.255Z,55.00
2023-04-20T12:06:53.771Z,55.30
2023-04-20T12:09:22.172Z,55.10
2023-04-20T12:11:50.570Z,54.40
2023-04-20T12:14:18.825Z,54.20
2023-04-20T12:16:48.448Z,53.70
2023-04-20T12:19:17.198Z,53.50
2023-04-20T12:21:47.270Z,53.10
2023-04-20T12:24:15.554Z,52.80
2023-04-20T12:26:43.931Z,52.60
2023-04-20T12:29:12.243Z,52.50
2023-04-20T12:31:40.678Z,52.50
2023-04-20T12:34:10.691Z,52.40
2023-04-20T12:36:40.576Z,52.10
2023-04-20T12:39:11.968Z,51.80
2023-04-20T12:41:42.432Z,51.50
2023-04-20T12:44:13.123Z,51.20
2023-04-20T12:46:41.798Z,51.10
2023-04-20T12:49:11.443Z,50.90
2023-04-20T12:51:39.649Z,50.80
2023-04-20T12:54:08.107Z,50.80
2023-04-20T12:56:37.041Z,50.20
2023-04-20T12:59:05.348Z,50.00
2023-04-20T13:01:33.837Z,49.80
2023-04-20T13:04:02.418Z,49.60
2023-04-20T13:06:32.833Z,49.60
2023-04-20T13:09:01.726Z,49.10
2023-04-20T13:11:31.139Z,48.60
2023-04-20T13:13:59.464Z,47.90
2023-04-20T13:16:28.628Z,47.30
2023-04-20T13:18:56.896Z,47.00
2023-04-20T13:21:25.170Z,46.90
2023-04-20T13:23:56.817Z,46.80
2023-04-20T13:26:25.502Z,46.70
2023-04-20T13:28:54.199Z,46.60
2023-04-20T13:31:22.531Z,46.00
2023-04-20T13:33:54.694Z,45.40
2023-04-20T13:36:23.310Z,44.80
2023-04-20T13:38:53.353Z,44.30
2023-04-20T13:41:23.510Z,43.80
2023-04-20T13:43:51.768Z,43.30
2023-04-20T13:46:20.920Z,43.00
2023-04-20T13:48:49.259Z,42.90
2023-04-20T13:51:17.532Z,42.40
2023-04-20T13:53:47.971Z,42.10
2023-04-20T13:56:16.578Z,41.70
2023-04-20T13:58:46.561Z,41.20
2023-04-20T14:01:16.787Z,40.30
2023-04-20T14:03:45.483Z,39.90
2023-04-20T14:06:13.826Z,39.40
2023-04-20T14:08:42.092Z,39.40
2023-04-20T14:11:10.652Z,39.30
2023-04-20T14:13:39.236Z,39.10
2023-04-20T14:16:10.797Z,38.80
2023-04-20T14:18:39.468Z,38.10
2023-04-20T14:21:07.891Z,37.90
2023-04-20T14:23:36.212Z,37.60
2023-04-20T14:26:04.489Z,37.30
2023-04-20T14:28:33.542Z,37.40
2023-04-20T14:31:02.873Z,37.60
2023-04-20T14:33:32.534Z,37.60
2023-04-20T14:36:00.876Z,37.50
2023-04-20T14:38:29.202Z,37.60
2023-04-20T14:40:57.546Z,37.50
2023-04-20T14:43:26.087Z,37.60
2023-04-20T14:45:55.167Z,37.40
2023-04-20T14:48:24.958Z,37.00
2023-04-20T14:50:54.808Z,36.60
2023-04-20T14:53:23.238Z,36.40
2023-04-20T14:55:52.222Z,36.10
2023-04-20T14:58:22.887Z,36.20
2023-04-20T15:00:51.608Z,36.20
2023-04-20T15:03:20.004Z,36.40
2023-04-20T15:05:48.469Z,36.70
2023-04-20T15:08:18.199Z,36.70
2023-04-20T15:10:46.512Z,36.30
2023-04-20T15:13:14.781Z,36.10
2023-04-20T15:15:48.738Z,35.90
2023-04-20T15:18:18.305Z,36.10
2023-04-20T15:20:46.631Z,36.40
2023-04-20T15:23:15.031Z,36.60
2023-04-20T15:25:44.988Z,36.50
2023-04-20T15:28:13.344Z,36.10
2023-04-20T15:30:42.094Z,36.20
2023-04-20T15:33:11.547Z,36.50
2023-04-20T15:35:42.585Z,36.40
2023-04-20T15:38:11.097Z,37.00
2023-04-20T15:40:39.704Z,36.70
2023-04-20T15:43:09.328Z,36.70
2023-04-20T15:45:37.673Z,36.80
2023-04-20T15:48:06.312Z,36.70
2023-04-20T15:50:35.420Z,36.30
2023-04-20T15:53:04.045Z,36.30
2023-04-20T15:55:34.477Z,35.90
2023-04-20T15:58:02.919Z,35.70
2023-04-20T16:00:32.521Z,35.70
2023-04-20T16:03:02.236Z,35.70
2023-04-20T16:05:30.667Z,35.70
2023-04-20T16:07:58.869Z,35.90
2023-04-20T16:10:27.909Z,36.00
2023-04-20T16:12:56.206Z,36.00
2023-04-20T16:15:24.614Z,35.70
2023-04-20T16:17:54.559Z,35.40
2023-04-20T16:20:41.491Z,35.20
2023-04-20T16:23:13.035Z,34.60
2023-04-20T16:25:44.744Z,34.50
2023-04-20T16:28:13.473Z,34.50
2023-04-20T16:30:50.650Z,34.40
2023-04-20T16:33:20.863Z,34.40
2023-04-20T16:35:49.106Z,34.20
2023-04-20T16:38:20.094Z,34.10
2023-04-20T16:40:48.454Z,33.80
2023-04-20T16:43:16.765Z,33.60
2023-04-20T16:45:45.014Z,33.50
2023-04-20T16:48:13.303Z,33.50
2023-04-20T16:50:43.190Z,33.70
2023-04-20T16:53:11.698Z,33.70
2023-04-20T16:55:39.998Z,34.30
2023-04-20T16:58:08.377Z,35.00
2023-04-20T17:00:44.760Z,35.80
2023-04-20T17:03:14.943Z,36.60
2023-04-20T17:05:46.575Z,37.70
2023-04-20T17:08:14.808Z,38.50
2023-04-20T17:10:44.025Z,38.50
2023-04-20T17:13:12.783Z,38.90
2023-04-20T17:15:42.768Z,39.20
2023-04-20T17:18:11.536Z,39.50
2023-04-20T17:20:40.027Z,39.90
2023-04-20T17:23:10.711Z,40.20
2023-04-20T17:25:39.623Z,40.60
2023-04-20T17:28:08.203Z,40.90
2023-04-20T17:30:36.911Z,41.40
2023-04-20T17:33:07.448Z,41.90
2023-04-20T17:35:38.120Z,42.20
2023-04-20T17:38:06.862Z,42.50
2023-04-20T17:40:36.646Z,43.10
2023-04-20T17:43:05.117Z,43.30
2023-04-20T17:45:33.369Z,43.50
2023-04-20T17:48:01.967Z,43.70
2023-04-20T17:50:30.597Z,43.90
2023-04-20T17:52:59.214Z,44.10
2023-04-20T17:55:27.699Z,44.40
2023-04-20T17:57:57.337Z,44.60
2023-04-20T18:00:25.851Z,44.90
2023-04-20T18:02:54.257Z,45.30
2023-04-20T18:05:22.671Z,45.80
2023-04-20T18:07:51.248Z,46.30
2023-04-20T18:10:20.839Z,46.70
2023-04-20T18:12:49.442Z,47.30
2023-04-20T18:15:19.138Z,47.60
2023-04-20T18:17:47.557Z,48.10
2023-04-20T18:20:16.453Z,48.50
2023-04-20T18:22:44.768Z,48.60
2023-04-20T18:25:12.971Z,48.90
2023-04-20T18:27:41.182Z,49.00
2023-04-20T18:30:10.894Z,49.30
2023-04-20T18:32:40.763Z,49.70
2023-04-20T18:35:10.590Z,50.00
2023-04-20T18:37:39.377Z,49.80
2023-04-20T18:40:09.384Z,50.10
2023-04-20T18:42:37.834Z,50.70
2023-04-20T18:45:07.194Z,50.40
2023-04-20T18:47:35.848Z,50.70
2023-04-20T18:50:06.596Z,50.80
2023-04-20T18:52:35.538Z,50.70
2023-04-20T18:55:04.046Z,50.70
2023-04-20T18:57:41.900Z,50.70
2023-04-20T19:00:10.872Z,51.00
2023-04-20T19:02:39.322Z,51.40
2023-04-20T19:05:09.628Z,51.00
2023-04-20T19:07:37.941Z,51.10
2023-04-20T19:10:07.575Z,51.20
2023-04-20T19:12:38.530Z,51.40
2023-04-20T19:15:08.642Z,51.50
2023-04-20T19:17:37.205Z,51.60
2023-04-20T19:20:06.509Z,51.70
2023-04-20T19:22:36.136Z,51.80
2023-04-20T19:25:04.696Z,52.10
2023-04-20T19:27:32.913Z,52.10
2023-04-20T19:30:01.208Z,52.10
2023-04-20T19:32:29.628Z,52.20
2023-04-20T19:34:59.633Z,52.20
2023-04-20T19:37:28.110Z,52.30
2023-04-20T19:39:57.867Z,52.20
2023-04-20T19:42:26.305Z,52.30
2023-04-20T19:44:54.565Z,52.40
2023-04-20T19:47:23.062Z,52.50
2023-04-20T19:49:51.503Z,52.50
2023-04-20T19:52:19.757Z,52.70
2023-04-20T19:54:48.021Z,52.70
2023-04-20T19:57:17.615Z,52.50
2023-04-20T19:59:46.012Z,52.80
2023-04-20T20:02:14.447Z,53.30
2023-04-20T20:04:44.625Z,53.50
2023-04-20T20:07:13.344Z,53.60
2023-04-20T20:09:41.653Z,54.20
2023-04-20T20:12:10.863Z,54.10
2023-04-20T20:14:40.675Z,54.30
2023-04-20T20:17:09.091Z,54.90
2023-04-20T20:19:43.186Z,54.90
2023-04-20T20:22:11.444Z,54.50
2023-04-20T20:24:40.467Z,54.50
2023-04-20T20:27:08.822Z,54.90
2023-04-20T20:29:37.170Z,55.40
2023-04-20T20:32:06.908Z,55.50
2023-04-20T20:34:35.166Z,55.70
2023-04-20T20:37:04.380Z,56.10
2023-04-20T20:39:33.098Z,56.40
2023-04-20T20:42:01.907Z,56.50
2023-04-20T20:44:32.896Z,57.00
2023-04-20T20:47:01.381Z,57.10
2023-04-20T20:49:31.047Z,57.20
2023-04-20T20:51:59.302Z,57.50
2023-04-20T20:54:27.496Z,57.80
2023-04-20T20:56:55.897Z,58.30
2023-04-20T20:59:24.128Z,58.70
2023-04-20T21:01:52.360Z,59.10
2023-04-20T21:04:20.682Z,59.40
2023-04-20T21:06:50.250Z,59.80
2023-04-20T21:09:18.648Z,60.00
2023-04-20T21:11:46.883Z,60.20
2023-04-20T21:14:15.184Z,60.60
2023-04-20T21:16:43.439Z,61.00
2023-04-20T21:19:11.732Z,61.20
2023-04-20T21:21:40.049Z,61.50
2023-04-20T21:24:09.791Z,61.70
2023-04-20T21:26:38.352Z,61.90
2023-04-20T21:29:07.153Z,62.20
2023-04-20T21:31:35.435Z,62.40
2023-04-20T21:34:03.813Z,62.70
2023-04-20T21:36:32.766Z,62.90
2023-04-20T21:39:00.966Z,63.10
2023-04-20T21:41:32.093Z,63.60
2023-04-20T21:44:55.182Z,63.90
2023-04-20T21:47:23.481Z,64.60
2023-04-20T21:49:51.785Z,64.20
2023-04-20T21:52:19.939Z,64.50
2023-04-20T21:54:48.125Z,64.80
2023-04-20T21:57:17.667Z,65.00
2023-04-20T21:59:45.846Z,65.20
2023-04-20T22:02:14.099Z,65.50
2023-04-20T22:04:42.627Z,65.90
2023-04-20T22:07:10.921Z,65.90
2023-04-20T22:09:39.207Z,66.10
2023-04-20T22:12:08.890Z,66.20
2023-04-20T22:14:38.572Z,66.40
2023-04-20T22:17:09.579Z,66.60
2023-04-20T22:19:37.858Z,66.60
2023-04-20T22:22:06.088Z,66.70
2023-04-20T22:24:34.382Z,66.80
2023-04-20T22:27:02.887Z,67.00
2023-04-20T22:29:31.156Z,67.20
2023-04-20T22:32:00.805Z,67.20
2023-04-20T22:34:29.242Z,67.40
2023-04-20T22:36:57.418Z,67.60
2023-04-20T22:39:25.742Z,67.70
2023-04-20T22:41:54.000Z,67.70
2023-04-20T22:44:22.510Z,67.80
2023-04-20T22:46:51.164Z,67.90
2023-04-20T22:49:21.068Z,68.60
2023-04-20T22:51:49.419Z,68.00
2023-04-20T22:54:17.696Z,68.00
2023-04-20T22:56:46.281Z,68.00
2023-04-20T22:59:15.761Z,68.20
2023-04-20T23:01:44.180Z,68.40
2023-04-20T23:04:12.718Z,68.50
2023-04-20T23:06:43.699Z,68.70
2023-04-20T23:09:13.243Z,68.80
2023-04-20T23:11:43.443Z,69.00
2023-04-20T23:14:11.600Z,69.20
2023-04-20T23:16:39.969Z,69.30
2023-04-20T23:19:08.280Z,69.40
2023-04-20T23:21:36.665Z,69.30
2023-04-20T23:24:09.015Z,69.50
2023-04-20T23:26:37.300Z,69.60
2023-04-20T23:29:05.683Z,69.60
2023-04-20T23:31:33.914Z,69.80
2023-04-20T23:34:02.169Z,69.90
2023-04-20T23:36:30.488Z,70.00
2023-04-20T23:38:58.742Z,70.10
2023-04-20T23:41:28.430Z,70.20
2023-04-20T23:43:56.671Z,70.30
2023-04-20T23:46:25.064Z,70.30
2023-04-20T23:48:55.271Z,70.30
2023-04-20T23:51:23.404Z,70.40
2023-04-20T23:53:51.631Z,70.60
2023-04-20T23:56:19.831Z,70.80
2023-04-20T23:58:49.330Z,71.50
